Time;durP1;ratioP1;P1;durP2;ratioP2;P2;SDS_P1;SDS_P2;PMS_P1;PMS_P2;Temp;Humidity;BMP_temperature;BMP_pressure;BME280_temperature;BME280_humidity;BME280_pressure;Samples;Min_cycle;Max_cycle;Signal;HPM_P1;HPM_P2
2022/10/29 00:00:40;;;;;;;6.90;1.00;;;25.80;25.80;;;;;;5042685;28;20084;-63
2022/10/29 00:03:07;;;;;;;9.27;1.50;;;25.90;26.20;;;;;;5043043;28;20078;-57
2022/10/29 00:05:34;;;;;;;9.63;1.10;;;25.90;25.70;;;;;;5040068;28;20097;-63
2022/10/29 00:08:00;;;;;;;8.13;0.90;;;25.70;25.10;;;;;;5037418;28;20124;-62
2022/10/29 00:10:28;;;;;;;9.32;1.10;;;25.70;25.10;;;;;;5037690;28;20085;-58
2022/10/29 00:12:54;;;;;;;4.47;1.00;;;25.70;25.00;;;;;;5036084;28;20082;-59
2022/10/29 00:15:21;;;;;;;8.27;1.20;;;25.70;24.80;;;;;;5039114;28;20120;-61
2022/10/29 00:17:47;;;;;;;11.52;1.17;;;25.70;25.00;;;;;;5042374;28;20081;-59
2022/10/29 00:20:14;;;;;;;4.85;0.93;;;25.60;25.80;;;;;;5042843;28;20070;-57
2022/10/29 00:22:40;;;;;;;8.95;0.93;;;25.40;25.50;;;;;;5040863;28;20112;-58
2022/10/29 00:25:07;;;;;;;7.95;0.98;;;25.40;25.90;;;;;;5036950;28;20109;-59
2022/10/29 00:27:33;;;;;;;5.50;1.10;;;25.20;26.10;;;;;;5036370;28;20073;-56
2022/10/29 00:30:00;;;;;;;11.02;1.20;;;25.10;27.30;;;;;;5032423;28;20563;-56
2022/10/29 00:32:26;;;;;;;9.75;1.20;;;25.10;27.00;;;;;;5036027;28;20101;-56
2022/10/29 00:34:52;;;;;;;3.05;1.08;;;25.00;28.60;;;;;;5034763;28;20518;-57
2022/10/29 00:37:19;;;;;;;11.50;1.30;;;24.90;26.50;;;;;;5034862;28;20073;-61
2022/10/29 00:39:45;;;;;;;6.07;0.93;;;24.80;28.10;;;;;;5033813;28;20135;-61
2022/10/29 00:42:14;;;;;;;9.82;1.42;;;24.70;27.00;;;;;;5031840;28;20165;-61
2022/10/29 00:44:41;;;;;;;4.55;1.05;;;24.60;28.70;;;;;;5032667;28;20081;-62
2022/10/29 00:47:10;;;;;;;17.48;2.05;;;24.50;28.70;;;;;;5034022;28;20089;-61
2022/10/29 00:49:39;;;;;;;8.40;1.40;;;24.40;28.80;;;;;;5034843;28;20096;-57
2022/10/29 00:52:06;;;;;;;9.25;1.98;;;24.30;29.00;;;;;;5033998;28;20439;-57
2022/10/29 00:54:38;;;;;;;11.00;1.98;;;24.20;28.60;;;;;;5037150;28;20213;-59
2022/10/29 00:57:11;;;;;;;8.80;2.28;;;24.10;29.60;;;;;;5041910;28;21949;-62
2022/10/29 00:59:38;;;;;;;9.82;2.17;;;23.90;28.30;;;;;;5035887;28;20078;-62
2022/10/29 01:02:04;;;;;;;10.40;2.33;;;23.80;30.90;;;;;;5036092;28;20080;-53
2022/10/29 01:04:31;;;;;;;14.27;2.30;;;23.70;28.90;;;;;;5037694;28;20077;-62
2022/10/29 01:06:57;;;;;;;9.13;2.45;;;23.60;28.60;;;;;;5032130;28;20108;-57
2022/10/29 01:09:24;;;;;;;7.88;2.90;;;23.50;29.70;;;;;;5034672;28;20100;-56
2022/10/29 01:12:11;;;;;;;28.83;9.07;;;23.40;29.70;;;;;;5034942;28;20093;-59
2022/10/29 01:15:09;;;;;;;23.48;6.78;;;23.30;29.50;;;;;;5031619;28;20566;-55
2022/10/29 01:17:57;;;;;;;25.90;6.03;;;23.10;30.30;;;;;;5035229;28;20093;-57
2022/10/29 01:20:52;;;;;;;16.90;4.53;;;22.90;32.10;;;;;;5041105;28;20528;-60
2022/10/29 01:23:54;;;;;;;24.02;4.25;;;22.70;32.50;;;;;;5039794;28;20109;-58
2022/10/29 01:26:59;;;;;;;16.75;3.92;;;22.50;33.40;;;;;;5044803;28;20119;-56
2022/10/29 01:30:02;;;;;;;32.50;10.80;;;22.50;34.10;;;;;;5037974;28;20093;-61
2022/10/29 01:33:26;;;;;;;36.47;16.30;;;22.40;33.20;;;;;;5020015;28;20581;-56
2022/10/29 01:36:10;;;;;;;41.80;20.73;;;22.30;33.60;;;;;;5030066;28;20911;-57
2022/10/29 01:39:07;;;;;;;33.03;13.00;;;22.20;35.60;;;;;;5028549;28;20116;-59
2022/10/29 01:41:58;;;;;;;29.08;6.85;;;22.10;34.30;;;;;;5029840;28;20189;-60
2022/10/29 01:44:34;;;;;;;36.35;5.60;;;22.00;36.30;;;;;;5029650;28;20089;-58
2022/10/29 01:47:03;;;;;;;44.70;7.22;;;21.90;36.20;;;;;;5029827;28;20081;-56
2022/10/29 01:49:36;;;;;;;32.17;5.80;;;21.90;35.80;;;;;;5029482;28;20105;-55
2022/10/29 01:52:05;;;;;;;25.20;5.60;;;21.80;35.90;;;;;;5030262;28;20074;-59
2022/10/29 01:54:31;;;;;;;30.45;5.97;;;21.70;34.90;;;;;;5028387;28;20657;-59
2022/10/29 01:56:59;;;;;;;35.40;5.50;;;21.70;34.20;;;;;;5028167;28;20578;-55
2022/10/29 01:59:31;;;;;;;25.20;5.30;;;21.70;35.10;;;;;;5027784;28;20228;-58
2022/10/29 02:02:24;;;;;;;29.52;5.65;;;21.70;35.70;;;;;;5028206;28;20090;-62
2022/10/29 02:05:14;;;;;;;30.80;6.05;;;21.70;34.80;;;;;;5028194;28;20074;-57
2022/10/29 02:07:52;;;;;;;24.45;5.53;;;21.70;33.90;;;;;;5012333;28;20086;-62
2022/10/29 02:10:21;;;;;;;19.75;6.32;;;21.70;32.50;;;;;;5042160;28;20092;-56
2022/10/29 02:12:53;;;;;;;23.45;5.82;;;21.70;33.90;;;;;;5039127;28;20086;-55
2022/10/29 02:15:50;;;;;;;25.38;5.63;;;21.60;35.50;;;;;;5046971;28;20444;-55
2022/10/29 02:18:17;;;;;;;34.85;5.47;;;21.60;34.50;;;;;;5034732;28;20082;-55
2022/10/29 02:20:45;;;;;;;34.72;6.65;;;21.60;35.30;;;;;;5040100;28;20156;-56
2022/10/29 02:23:12;;;;;;;35.15;6.65;;;21.60;33.90;;;;;;5036084;28;20078;-55
2022/10/29 02:25:39;;;;;;;37.63;7.30;;;21.50;33.30;;;;;;5037834;28;20089;-56
2022/10/29 02:28:05;;;;;;;35.22;8.02;;;21.50;33.20;;;;;;5037314;28;20132;-58
2022/10/29 02:30:32;;;;;;;27.13;8.05;;;21.50;33.80;;;;;;5033442;28;20094;-61
2022/10/29 02:32:58;;;;;;;32.42;8.77;;;21.50;33.70;;;;;;5035879;28;20070;-61
2022/10/29 02:35:24;;;;;;;36.78;8.10;;;21.40;33.10;;;;;;5035863;28;20132;-59
2022/10/29 02:37:51;;;;;;;34.67;8.70;;;21.40;33.20;;;;;;5036063;28;20069;-60
2022/10/29 02:40:17;;;;;;;35.72;8.65;;;21.40;34.40;;;;;;5042130;28;20090;-57
2022/10/29 02:42:44;;;;;;;36.92;8.75;;;21.30;34.90;;;;;;5038946;28;20074;-57
2022/10/29 02:45:10;;;;;;;41.60;8.80;;;21.30;34.50;;;;;;5037124;28;20142;-56
2022/10/29 02:47:36;;;;;;;47.78;8.75;;;21.20;34.30;;;;;;5043353;28;20077;-60
2022/10/29 02:50:03;;;;;;;35.08;10.23;;;21.20;34.00;;;;;;5041244;28;20086;-59
2022/10/29 02:52:29;;;;;;;56.38;10.60;;;21.20;33.80;;;;;;5036315;28;20078;-56
2022/10/29 02:54:56;;;;;;;48.17;12.20;;;21.20;32.60;;;;;;5039295;28;20256;-58
2022/10/29 02:57:22;;;;;;;32.50;11.05;;;21.20;32.90;;;;;;5046418;28;20097;-57
2022/10/29 02:59:48;;;;;;;46.90;12.80;;;21.20;32.80;;;;;;5041239;28;20104;-56
2022/10/29 03:02:15;;;;;;;41.25;9.63;;;21.20;32.00;;;;;;5037342;28;20073;-56
2022/10/29 03:04:43;;;;;;;40.20;9.52;;;21.20;31.00;;;;;;5036214;28;20088;-55
2022/10/29 03:07:09;;;;;;;37.63;7.72;;;21.20;32.60;;;;;;5036088;28;20127;-58
2022/10/29 03:09:36;;;;;;;37.42;7.55;;;21.20;31.10;;;;;;5037723;28;21090;-57
2022/10/29 03:12:02;;;;;;;35.83;7.90;;;21.20;32.20;;;;;;5036533;28;20090;-56
2022/10/29 03:14:28;;;;;;;40.45;8.35;;;21.10;33.70;;;;;;5034145;28;20124;-56
2022/10/29 03:16:55;;;;;;;28.48;8.82;;;21.10;33.30;;;;;;5036745;28;20069;-55
2022/10/29 03:19:21;;;;;;;36.75;9.82;;;21.00;32.80;;;;;;5041204;28;20090;-58
2022/10/29 03:21:47;;;;;;;37.00;10.65;;;21.00;33.90;;;;;;5037577;28;20111;-56
2022/10/29 03:24:14;;;;;;;36.22;10.55;;;21.00;33.80;;;;;;5042091;28;20069;-55
2022/10/29 03:26:40;;;;;;;32.25;10.57;;;20.90;34.70;;;;;;5036681;28;20203;-57
2022/10/29 03:29:06;;;;;;;29.77;11.32;;;20.80;34.90;;;;;;5037903;28;20078;-59
2022/10/29 03:31:33;;;;;;;40.97;12.63;;;20.80;34.90;;;;;;5045271;28;20077;-56
2022/10/29 03:33:59;;;;;;;41.00;11.73;;;20.70;34.20;;;;;;5034730;28;20132;-56
2022/10/29 03:36:26;;;;;;;31.17;9.68;;;20.60;35.50;;;;;;5042398;28;20074;-56
2022/10/29 03:38:53;;;;;;;31.08;8.50;;;20.60;36.40;;;;;;5042159;28;20074;-62
2022/10/29 03:41:19;;;;;;;37.20;8.23;;;20.50;35.80;;;;;;5041189;28;21332;-56
2022/10/29 03:43:45;;;;;;;29.83;8.15;;;20.40;36.10;;;;;;5036663;28;20557;-54
2022/10/29 03:46:12;;;;;;;33.55;7.75;;;20.40;36.30;;;;;;5036919;28;20108;-61
2022/10/29 03:48:38;;;;;;;28.50;7.47;;;20.30;36.30;;;;;;5039707;28;20168;-56
2022/10/29 03:51:06;;;;;;;30.33;7.13;;;20.20;38.60;;;;;;5035934;28;20085;-55
2022/10/29 03:53:33;;;;;;;34.70;7.85;;;20.10;36.80;;;;;;5037480;28;20074;-60
2022/10/29 03:56:00;;;;;;;26.50;9.10;;;20.10;37.80;;;;;;5036425;28;20120;-56
2022/10/29 03:58:27;;;;;;;29.45;9.38;;;20.10;37.80;;;;;;5044921;28;20074;-60
2022/10/29 04:01:03;;;;;;;28.83;10.25;;;20.10;37.30;;;;;;5038143;28;20823;-55
2022/10/29 04:03:31;;;;;;;34.70;8.90;;;20.00;36.30;;;;;;5037765;28;20069;-54
2022/10/29 04:06:00;;;;;;;29.17;7.90;;;20.00;36.40;;;;;;5040136;28;20160;-58
2022/10/29 04:08:26;;;;;;;30.75;7.72;;;20.00;37.40;;;;;;5036276;28;20478;-56
2022/10/29 04:10:53;;;;;;;33.58;7.30;;;20.00;37.20;;;;;;5042796;28;20150;-60
2022/10/29 04:13:20;;;;;;;27.17;6.47;;;19.90;38.10;;;;;;5036537;28;20550;-61
2022/10/29 04:15:46;;;;;;;24.77;6.22;;;19.90;37.40;;;;;;5035651;28;20168;-54
2022/10/29 04:18:13;;;;;;;21.52;7.28;;;19.90;36.60;;;;;;5035604;28;20081;-55
2022/10/29 04:20:40;;;;;;;35.22;8.77;;;19.80;36.20;;;;;;5035292;28;20081;-61
2022/10/29 04:23:06;;;;;;;31.27;8.80;;;19.80;36.60;;;;;;5036392;28;20073;-60
2022/10/29 04:25:33;;;;;;;35.03;8.70;;;19.80;39.00;;;;;;5041693;28;20169;-59
2022/10/29 04:27:59;;;;;;;33.63;9.68;;;19.70;39.00;;;;;;5031457;28;20074;-54
2022/10/29 04:30:25;;;;;;;34.28;9.90;;;19.50;38.90;;;;;;5036491;28;20117;-55
2022/10/29 04:32:56;;;;;;;36.75;10.18;;;19.50;39.60;;;;;;5039930;28;20089;-60
2022/10/29 04:35:23;;;;;;;33.88;10.32;;;19.40;39.70;;;;;;5037769;28;20073;-55
2022/10/29 04:37:50;;;;;;;33.28;10.38;;;19.40;39.10;;;;;;5037077;28;20098;-56
2022/10/29 04:40:17;;;;;;;38.80;8.73;;;19.30;38.30;;;;;;5039009;28;20081;-58
2022/10/29 04:42:43;;;;;;;36.20;8.32;;;19.20;38.50;;;;;;5033838;28;20459;-59
2022/10/29 04:45:09;;;;;;;26.35;6.60;;;19.30;38.80;;;;;;5033611;28;20147;-59
2022/10/29 04:47:36;;;;;;;28.88;6.70;;;19.20;37.80;;;;;;5033381;28;20074;-57
2022/10/29 04:50:02;;;;;;;36.95;7.13;;;19.20;39.50;;;;;;5039864;28;20558;-56
2022/10/29 04:52:29;;;;;;;39.13;6.35;;;19.10;39.10;;;;;;5040666;28;20085;-57
2022/10/29 04:54:55;;;;;;;33.47;5.38;;;19.10;38.30;;;;;;5039189;28;20062;-54
2022/10/29 04:57:21;;;;;;;24.13;5.20;;;19.10;38.90;;;;;;5035935;28;20523;-58
2022/10/29 04:59:48;;;;;;;23.58;4.53;;;19.10;39.10;;;;;;5034259;28;20082;-60
2022/10/29 05:02:14;;;;;;;30.88;4.78;;;19.00;39.20;;;;;;5033753;28;20091;-55
2022/10/29 05:04:40;;;;;;;21.30;4.78;;;19.00;41.50;;;;;;5034130;28;20406;-59
2022/10/29 05:07:07;;;;;;;43.05;4.80;;;19.00;41.80;;;;;;5038493;28;20118;-55
2022/10/29 05:09:33;;;;;;;28.83;5.22;;;18.90;40.00;;;;;;5034896;28;20546;-60
2022/10/29 05:11:59;;;;;;;24.42;4.47;;;18.90;39.60;;;;;;5037454;28;20070;-60
2022/10/29 05:14:26;;;;;;;24.88;4.25;;;18.80;39.40;;;;;;5041677;28;20462;-59
2022/10/29 05:16:52;;;;;;;28.55;4.65;;;18.80;40.30;;;;;;5037898;28;20081;-58
2022/10/29 05:19:18;;;;;;;26.13;4.85;;;18.70;40.50;;;;;;5042727;28;20183;-60
2022/10/29 05:21:45;;;;;;;32.85;5.05;;;18.70;39.80;;;;;;5035600;28;20066;-56
2022/10/29 05:24:11;;;;;;;21.60;5.28;;;18.70;39.00;;;;;;5031669;28;20517;-57
2022/10/29 05:26:37;;;;;;;20.88;4.53;;;18.70;40.00;;;;;;5030725;28;20523;-58
2022/10/29 05:29:04;;;;;;;30.33;5.65;;;18.60;39.70;;;;;;5037770;28;20082;-55
2022/10/29 05:31:30;;;;;;;24.42;5.53;;;18.70;39.50;;;;;;5033045;28;20519;-57
2022/10/29 05:33:56;;;;;;;36.75;7.45;;;18.60;39.50;;;;;;5039963;28;20604;-60
2022/10/29 05:36:23;;;;;;;40.53;6.85;;;18.70;39.90;;;;;;5036135;28;20065;-57
2022/10/29 05:38:49;;;;;;;23.10;5.90;;;18.70;40.70;;;;;;5039582;28;20538;-59
2022/10/29 05:41:16;;;;;;;33.58;6.57;;;18.60;41.00;;;;;;5037565;28;20136;-55
2022/10/29 05:43:42;;;;;;;48.15;7.03;;;18.60;41.90;;;;;;5033783;28;20070;-57
2022/10/29 05:46:08;;;;;;;26.90;5.60;;;18.60;41.20;;;;;;5031655;28;20623;-63
2022/10/29 05:48:35;;;;;;;20.20;5.43;;;18.50;41.30;;;;;;5032864;28;20535;-57
2022/10/29 05:51:01;;;;;;;21.38;5.47;;;18.50;41.10;;;;;;5036506;28;20531;-55
2022/10/29 05:53:28;;;;;;;14.20;4.32;;;18.50;41.50;;;;;;5035353;28;20412;-61
2022/10/29 05:55:54;;;;;;;23.02;5.32;;;18.40;41.70;;;;;;5037217;28;20070;-60
2022/10/29 05:58:20;;;;;;;35.03;6.15;;;18.30;41.00;;;;;;5031003;28;20123;-60
2022/10/29 06:00:47;;;;;;;30.75;6.75;;;18.20;41.00;;;;;;5033089;28;20153;-55
2022/10/29 06:03:19;;;;;;;28.40;6.75;;;18.30;41.00;;;;;;5038841;28;20099;-60
2022/10/29 06:05:49;;;;;;;25.45;6.57;;;18.20;40.60;;;;;;5030568;28;20070;-56
2022/10/29 06:08:16;;;;;;;28.95;6.43;;;18.10;40.30;;;;;;5033268;28;20187;-62
2022/10/29 06:10:42;;;;;;;25.42;6.13;;;18.20;40.50;;;;;;5035068;28;20090;-56
2022/10/29 06:13:14;;;;;;;30.85;5.57;;;18.20;40.50;;;;;;5041827;28;20066;-57
2022/10/29 06:15:40;;;;;;;29.92;5.30;;;18.20;40.70;;;;;;5037773;28;20476;-56
2022/10/29 06:18:06;;;;;;;17.15;5.10;;;18.10;40.80;;;;;;5040929;28;21720;-57
2022/10/29 06:20:33;;;;;;;18.23;5.80;;;18.10;40.30;;;;;;5035203;28;20073;-56
2022/10/29 06:22:59;;;;;;;28.55;6.82;;;18.10;40.40;;;;;;5036406;28;20109;-54
2022/10/29 06:25:27;;;;;;;26.77;6.30;;;18.10;40.50;;;;;;5041817;28;20599;-56
2022/10/29 06:28:04;;;;;;;18.23;5.65;;;18.00;41.20;;;;;;5040178;28;20078;-60
2022/10/29 06:30:32;;;;;;;25.73;5.63;;;18.00;40.50;;;;;;5040729;28;20164;-56
2022/10/29 06:32:59;;;;;;;24.63;5.35;;;18.10;41.10;;;;;;5037382;28;20093;-55
2022/10/29 06:35:26;;;;;;;26.33;5.22;;;18.10;41.40;;;;;;5035733;28;20554;-57
2022/10/29 06:37:52;;;;;;;22.35;4.75;;;18.10;40.80;;;;;;5033693;28;20073;-58
2022/10/29 06:40:19;;;;;;;25.20;4.70;;;18.00;40.60;;;;;;5040478;28;20119;-56
2022/10/29 06:42:45;;;;;;;13.77;3.75;;;18.00;40.90;;;;;;5044688;28;20122;-59
2022/10/29 06:45:12;;;;;;;18.27;4.55;;;17.90;40.60;;;;;;5040668;28;20089;-57
2022/10/29 06:47:40;;;;;;;19.55;4.55;;;17.80;40.00;;;;;;5038422;28;20511;-59
2022/10/29 06:50:08;;;;;;;30.27;5.93;;;17.80;41.70;;;;;;5037081;28;20196;-57
2022/10/29 06:52:35;;;;;;;24.25;6.15;;;17.80;41.50;;;;;;5037193;28;20090;-56
2022/10/29 06:55:02;;;;;;;22.73;4.82;;;17.80;41.80;;;;;;5040240;28;20085;-55
2022/10/29 06:57:29;;;;;;;22.08;4.10;;;17.70;40.50;;;;;;5038707;28;20073;-55
2022/10/29 06:59:56;;;;;;;24.67;3.70;;;17.60;40.30;;;;;;5042128;28;20086;-56
2022/10/29 07:02:23;;;;;;;17.02;2.20;;;17.60;41.60;;;;;;5038063;28;20062;-55
2022/10/29 07:04:49;;;;;;;16.55;2.40;;;17.50;41.30;;;;;;5036706;28;20082;-57
2022/10/29 07:07:16;;;;;;;15.88;2.83;;;17.50;39.90;;;;;;5037217;28;20074;-57
2022/10/29 07:09:42;;;;;;;22.10;2.83;;;17.40;40.10;;;;;;5040790;28;20081;-59
2022/10/29 07:12:09;;;;;;;18.45;2.75;;;17.40;40.00;;;;;;5038633;28;20165;-55
2022/10/29 07:14:35;;;;;;;11.50;2.78;;;17.40;40.20;;;;;;5038822;28;20106;-55
2022/10/29 07:17:02;;;;;;;19.98;2.40;;;17.50;40.60;;;;;;5036047;28;20127;-56
2022/10/29 07:19:28;;;;;;;;;;;17.50;40.70;;;;;;5034030;28;20070;-61
2022/10/29 07:21:54;;;;;;;11.95;2.05;;;17.60;41.00;;;;;;5034706;28;19980;-56
2022/10/29 07:24:20;;;;;;;;;;;17.50;39.80;;;;;;5036765;28;20104;-56
2022/10/29 07:26:46;;;;;;;9.85;2.05;;;17.40;39.20;;;;;;5038142;28;19977;-56
2022/10/29 07:29:13;;;;;;;17.50;2.08;;;17.40;39.20;;;;;;5036713;28;20070;-54
2022/10/29 07:31:39;;;;;;;;;;;17.30;38.40;;;;;;5042599;28;20093;-56
2022/10/29 07:34:05;;;;;;;14.65;1.98;;;17.30;38.70;;;;;;5035524;28;20007;-57
2022/10/29 07:36:31;;;;;;;;;;;17.40;38.70;;;;;;5040613;28;20102;-58
2022/10/29 07:38:58;;;;;;;8.93;1.77;;;17.40;37.90;;;;;;5034226;28;20023;-60
2022/10/29 07:41:24;;;;;;;15.23;2.42;;;17.40;37.40;;;;;;5042473;28;20077;-59
2022/10/29 07:43:50;;;;;;;14.68;1.55;;;17.40;37.70;;;;;;5039982;28;20086;-54
2022/10/29 07:46:17;;;;;;;8.88;1.48;;;17.40;38.00;;;;;;5038822;28;20551;-62
2022/10/29 07:48:43;;;;;;;;;;;17.40;37.20;;;;;;5036417;28;20152;-59
2022/10/29 07:51:09;;;;;;;11.45;2.08;;;17.50;36.70;;;;;;5034932;28;20068;-61
2022/10/29 07:53:35;;;;;;;10.18;1.88;;;17.40;36.10;;;;;;5034314;28;20081;-58
2022/10/29 07:56:02;;;;;;;8.60;1.35;;;17.40;35.60;;;;;;5039142;28;20557;-61
2022/10/29 07:58:28;;;;;;;7.72;1.67;;;17.40;34.80;;;;;;5033354;28;20070;-55
2022/10/29 08:00:55;;;;;;;8.75;1.50;;;17.50;35.70;;;;;;5034678;28;20074;-59
2022/10/29 08:03:21;;;;;;;9.05;1.55;;;17.50;35.20;;;;;;5036167;28;20077;-58
2022/10/29 08:05:48;;;;;;;5.88;1.60;;;17.50;35.50;;;;;;5035137;28;20070;-62
2022/10/29 08:08:16;;;;;;;10.07;1.45;;;17.50;36.00;;;;;;5036453;28;20102;-56
2022/10/29 08:10:43;;;;;;;7.22;1.48;;;17.50;36.30;;;;;;5035752;28;20089;-57
2022/10/29 08:13:09;;;;;;;6.20;1.30;;;17.50;35.60;;;;;;5032518;28;20078;-57
2022/10/29 08:15:36;;;;;;;9.40;1.73;;;17.50;35.60;;;;;;5037897;28;20525;-57
2022/10/29 08:18:08;;;;;;;11.60;1.77;;;17.40;36.60;;;;;;5036177;28;20147;-58
2022/10/29 08:20:34;;;;;;;7.32;1.58;;;17.40;35.70;;;;;;5039199;28;20074;-60
2022/10/29 08:23:00;;;;;;;;;;;17.40;35.70;;;;;;5042753;28;20069;-60
2022/10/29 08:25:27;;;;;;;10.13;1.80;;;17.30;38.20;;;;;;5033656;28;19980;-55
2022/10/29 08:28:03;;;;;;;12.85;2.70;;;17.20;39.30;;;;;;5043123;28;20080;-60
2022/10/29 08:30:31;;;;;;;17.60;2.90;;;17.30;38.20;;;;;;5034936;28;20168;-54
2022/10/29 08:32:57;;;;;;;6.43;2.28;;;17.30;37.00;;;;;;5039780;28;20541;-54
2022/10/29 08:35:23;;;;;;;8.85;2.63;;;17.10;36.50;;;;;;5038592;28;20069;-58
2022/10/29 08:37:50;;;;;;;29.92;3.42;;;17.10;37.30;;;;;;5038553;28;20789;-60
2022/10/29 08:40:29;;;;;;;14.23;2.72;;;17.00;39.00;;;;;;5034345;28;20431;-60
2022/10/29 08:43:20;;;;;;;9.68;2.90;;;17.00;39.60;;;;;;5033016;28;20531;-56
2022/10/29 08:45:53;;;;;;;13.68;2.97;;;16.90;39.00;;;;;;5032484;28;20131;-56
2022/10/29 08:48:31;;;;;;;13.73;3.47;;;16.90;39.70;;;;;;5033922;28;20085;-60
2022/10/29 08:51:31;;;;;;;9.13;2.60;;;16.70;41.60;;;;;;5033779;28;20147;-57
2022/10/29 08:53:57;;;;;;;11.52;3.42;;;16.70;40.30;;;;;;5033705;28;20181;-61
2022/10/29 08:56:33;;;;;;;10.65;3.38;;;16.70;39.30;;;;;;5032428;28;20101;-57
2022/10/29 08:59:11;;;;;;;19.42;3.45;;;16.70;39.80;;;;;;5038760;28;20073;-59
2022/10/29 09:01:38;;;;;;;16.40;3.70;;;16.70;40.00;;;;;;5036665;28;20155;-62
2022/10/29 09:04:22;;;;;;;17.13;3.85;;;16.70;40.00;;;;;;5034941;28;20146;-58
2022/10/29 09:07:19;;;;;;;11.48;3.95;;;16.70;41.70;;;;;;5038132;28;20062;-61
2022/10/29 09:10:07;;;;;;;20.23;4.65;;;16.80;41.70;;;;;;5037318;28;20086;-62
2022/10/29 09:12:51;;;;;;;15.52;3.92;;;16.80;40.30;;;;;;5036936;28;20157;-60
2022/10/29 09:15:28;;;;;;;21.13;4.15;;;16.80;39.20;;;;;;5035794;28;20338;-59
2022/10/29 09:18:14;;;;;;;20.50;4.38;;;16.80;39.00;;;;;;5034542;28;20073;-61
2022/10/29 09:21:11;;;;;;;16.83;3.72;;;16.80;41.10;;;;;;5035997;28;20565;-60
2022/10/29 09:23:46;;;;;;;15.85;3.72;;;16.70;39.70;;;;;;5035132;28;20098;-60
2022/10/29 09:26:25;;;;;;;16.80;4.00;;;16.60;40.30;;;;;;5031519;28;20093;-60
2022/10/29 09:29:03;;;;;;;18.33;4.80;;;16.50;40.60;;;;;;5031621;28;20073;-60
2022/10/29 09:31:41;;;;;;;24.45;4.82;;;16.50;40.20;;;;;;5036578;28;20653;-57
2022/10/29 09:34:16;;;;;;;25.27;4.95;;;16.50;39.90;;;;;;5041125;28;20081;-59
2022/10/29 09:36:45;;;;;;;29.17;5.10;;;16.40;40.10;;;;;;5034175;28;20089;-60
2022/10/29 09:39:16;;;;;;;25.88;5.15;;;16.40;41.10;;;;;;5035293;28;20086;-58
2022/10/29 09:41:44;;;;;;;23.42;4.68;;;16.40;40.70;;;;;;5033954;28;20074;-61
2022/10/29 09:44:28;;;;;;;21.27;4.70;;;16.40;41.00;;;;;;5036171;28;20133;-61
2022/10/29 09:47:13;;;;;;;22.88;5.28;;;16.30;41.00;;;;;;5037487;28;20101;-55
2022/10/29 09:50:10;;;;;;;19.50;3.80;;;16.30;40.60;;;;;;5037734;28;20562;-61
2022/10/29 09:52:41;;;;;;;18.35;4.28;;;16.20;41.60;;;;;;5039237;28;20074;-56
2022/10/29 09:55:16;;;;;;;11.93;3.97;;;16.10;43.10;;;;;;5044750;28;20124;-59
2022/10/29 09:57:42;;;;;;;20.85;4.22;;;16.00;42.90;;;;;;5039268;28;20061;-59
2022/10/29 10:00:20;;;;;;;;;;;15.90;42.80;;;;;;5038852;28;20128;-55
2022/10/29 10:02:58;;;;;;;20.17;4.63;;;16.00;42.30;;;;;;5038293;28;20003;-55
2022/10/29 10:05:30;;;;;;;21.20;4.63;;;16.00;41.30;;;;;;5043034;28;20073;-56
2022/10/29 10:08:06;;;;;;;19.27;4.40;;;15.90;41.80;;;;;;5042119;28;20182;-58
2022/10/29 10:10:37;;;;;;;17.38;4.72;;;15.90;41.70;;;;;;5041963;28;20143;-60
2022/10/29 10:13:05;;;;;;;22.85;4.75;;;16.00;41.00;;;;;;5039868;28;20148;-59
2022/10/29 10:15:33;;;;;;;18.00;4.68;;;16.00;40.60;;;;;;5038226;28;20133;-57
2022/10/29 10:18:04;;;;;;;15.38;4.22;;;16.00;39.70;;;;;;5036620;28;20515;-61
2022/10/29 10:20:34;;;;;;;21.30;4.10;;;16.00;39.10;;;;;;5037317;28;20081;-61
2022/10/29 10:23:07;;;;;;;13.30;3.92;;;16.00;38.90;;;;;;5036881;28;20085;-61
2022/10/29 10:25:39;;;;;;;19.23;3.58;;;16.20;38.00;;;;;;5036209;28;20069;-57
2022/10/29 10:28:15;;;;;;;16.95;3.10;;;16.20;37.80;;;;;;5034766;28;20501;-61
2022/10/29 10:30:42;;;;;;;15.70;3.20;;;16.10;39.20;;;;;;5035860;28;20084;-60
2022/10/29 10:33:26;;;;;;;9.02;2.38;;;16.00;37.80;;;;;;5033833;28;20074;-55
2022/10/29 10:35:54;;;;;;;14.82;2.15;;;16.20;36.60;;;;;;5035753;28;20073;-55
2022/10/29 10:38:21;;;;;;;5.65;2.17;;;16.20;36.50;;;;;;5038285;28;20077;-54
2022/10/29 10:41:04;;;;;;;10.07;1.90;;;16.30;37.40;;;;;;5037116;28;20080;-60
2022/10/29 10:43:31;;;;;;;7.90;1.90;;;16.20;37.50;;;;;;5035371;28;20081;-60
2022/10/29 10:46:04;;;;;;;10.52;2.15;;;16.20;37.20;;;;;;5036613;28;20066;-55
2022/10/29 10:48:30;;;;;;;4.43;1.50;;;16.20;37.90;;;;;;5035628;28;20070;-55
2022/10/29 10:51:29;;;;;;;;;;;16.10;38.00;;;;;;5041372;28;20084;-58
2022/10/29 10:53:57;;;;;;;14.25;2.17;;;16.10;37.60;;;;;;5010862;28;19958;-58
2022/10/29 10:56:23;;;;;;;8.00;1.73;;;16.00;39.40;;;;;;5040610;28;20116;-58
2022/10/29 10:58:57;;;;;;;;;;;16.00;38.90;;;;;;5039731;28;20089;-59
2022/10/29 11:01:44;;;;;;;7.88;2.17;;;16.00;39.20;;;;;;5036806;28;20321;-59
2022/10/29 11:04:19;;;;;;;10.43;2.87;;;16.00;39.30;;;;;;5035554;28;20427;-61
2022/10/29 11:06:50;;;;;;;14.02;3.97;;;15.80;39.20;;;;;;5035299;28;20084;-57
2022/10/29 11:09:29;;;;;;;13.60;3.33;;;15.70;39.90;;;;;;5035628;28;20180;-62
2022/10/29 11:12:26;;;;;;;17.40;3.30;;;15.70;40.40;;;;;;5037728;28;21462;-55
2022/10/29 11:15:14;;;;;;;14.73;3.50;;;15.70;40.40;;;;;;5035350;28;20582;-57
2022/10/29 11:18:12;;;;;;;11.90;3.17;;;15.70;41.20;;;;;;5036079;28;20069;-61
2022/10/29 11:20:43;;;;;;;14.13;3.67;;;15.60;42.20;;;;;;5044072;28;20085;-56
2022/10/29 11:23:38;;;;;;;16.20;4.15;;;15.60;42.90;;;;;;5035482;28;20628;-60
2022/10/29 11:26:49;;;;;;;15.27;3.75;;;15.60;41.70;;;;;;5037546;28;20081;-56
2022/10/29 11:29:49;;;;;;;10.05;3.10;;;15.60;42.10;;;;;;5032099;28;20101;-61
2022/10/29 11:32:22;;;;;;;12.40;3.10;;;15.60;40.90;;;;;;5037964;28;20375;-56
2022/10/29 11:35:12;;;;;;;19.55;3.25;;;15.60;39.70;;;;;;5037713;28;20094;-58
2022/10/29 11:38:06;;;;;;;8.95;2.60;;;15.70;40.90;;;;;;5037451;28;20085;-60
2022/10/29 11:41:05;;;;;;;14.45;2.40;;;15.70;40.00;;;;;;5045136;28;20500;-56
2022/10/29 11:43:32;;;;;;;11.07;2.00;;;15.70;39.20;;;;;;5030173;28;20128;-58
2022/10/29 11:46:09;;;;;;;12.20;2.15;;;15.80;38.30;;;;;;5038593;28;20080;-62
2022/10/29 11:49:17;;;;;;;6.70;2.25;;;15.80;37.00;;;;;;5035490;28;20123;-58
2022/10/29 11:51:53;;;;;;;15.73;2.38;;;15.80;37.40;;;;;;5040821;28;20110;-55
2022/10/29 11:54:52;;;;;;;11.02;2.15;;;15.70;39.20;;;;;;5036651;28;21712;-56
2022/10/29 11:57:32;;;;;;;9.45;2.33;;;15.70;39.50;;;;;;5031390;28;20550;-57
2022/10/29 12:00:02;;;;;;;10.13;2.35;;;15.70;40.00;;;;;;5036249;28;20135;-55
2022/10/29 12:03:10;;;;;;;5.40;1.90;;;15.70;40.10;;;;;;5035939;28;20074;-56
2022/10/29 12:05:49;;;;;;;9.13;2.47;;;15.60;40.30;;;;;;5034214;28;20089;-61
2022/10/29 12:08:15;;;;;;;12.52;2.40;;;15.60;41.20;;;;;;5039548;28;20077;-62
2022/10/29 12:11:06;;;;;;;12.13;2.60;;;15.60;40.50;;;;;;5038704;28;20090;-56
2022/10/29 12:13:57;;;;;;;10.43;2.45;;;15.70;40.80;;;;;;5036260;28;20437;-59
2022/10/29 12:16:52;;;;;;;12.02;2.40;;;15.60;41.00;;;;;;5039931;28;20110;-56
2022/10/29 12:20:00;;;;;;;11.02;2.63;;;15.60;41.30;;;;;;5034149;28;20070;-56
2022/10/29 12:22:51;;;;;;;10.17;2.43;;;15.60;41.00;;;;;;5027527;28;20090;-61
2022/10/29 12:26:02;;;;;;;9.20;2.63;;;15.60;41.70;;;;;;5026432;28;20406;-61
2022/10/29 12:29:12;;;;;;;10.45;2.67;;;15.60;42.50;;;;;;5018360;28;20423;-56
2022/10/29 12:32:14;;;;;;;14.57;2.97;;;15.50;42.50;;;;;;5010122;28;20089;-61
2022/10/29 12:34:49;;;;;;;22.83;3.15;;;15.50;42.70;;;;;;4986158;28;20216;-56
2022/10/29 12:37:54;;;;;;;9.98;2.45;;;15.40;42.30;;;;;;5027704;28;20077;-58
2022/10/29 12:40:33;;;;;;;15.48;2.80;;;15.40;42.70;;;;;;5026897;28;20094;-57
2022/10/29 12:43:05;;;;;;;10.70;2.78;;;15.30;43.00;;;;;;5027943;28;20283;-60
2022/10/29 12:46:02;;;;;;;12.98;2.42;;;15.20;42.90;;;;;;5027200;28;20558;-59
2022/10/29 12:49:05;;;;;;;18.77;3.20;;;15.10;43.20;;;;;;5026899;28;20077;-59
2022/10/29 12:51:53;;;;;;;13.82;3.38;;;15.10;43.20;;;;;;5026288;28;20577;-59
2022/10/29 12:54:30;;;;;;;12.93;3.55;;;15.10;43.90;;;;;;5027301;28;20121;-62
2022/10/29 12:57:12;;;;;;;9.07;4.25;;;15.10;43.30;;;;;;5026697;28;20124;-60
2022/10/29 12:59:39;;;;;;;26.65;4.00;;;15.00;43.70;;;;;;5035214;28;20082;-63
2022/10/29 13:02:28;;;;;;;22.60;4.95;;;15.00;44.70;;;;;;5038409;28;20081;-57
2022/10/29 13:05:10;;;;;;;17.58;5.10;;;14.90;45.30;;;;;;5026710;28;20530;-60
2022/10/29 13:07:45;;;;;;;20.42;6.95;;;14.90;45.20;;;;;;5034519;28;20179;-60
2022/10/29 13:10:28;;;;;;;22.42;7.88;;;14.90;44.70;;;;;;5033297;28;20438;-55